createdAt,value
2019-03-12T00:00:19.953Z,0.00
2019-03-12T00:01:19.948Z,0.00
2019-03-12T00:02:19.976Z,0.00
2019-03-12T00:03:19.990Z,0.00
2019-03-12T00:04:20.012Z,0.00
2019-03-12T00:05:20.034Z,0.00
2019-03-12T00:06:20.061Z,0.00
2019-03-12T00:07:20.114Z,0.00
2019-03-12T00:08:20.100Z,0.00
2019-03-12T00:09:20.120Z,0.00
2019-03-12T00:10:20.139Z,0.00
2019-03-12T00:11:20.160Z,0.00
2019-03-12T00:12:20.185Z,0.00
2019-03-12T00:13:20.218Z,0.00
2019-03-12T00:14:20.226Z,0.00
2019-03-12T00:15:20.279Z,0.00
2019-03-12T00:16:20.269Z,0.00
2019-03-12T00:17:20.290Z,0.00
2019-03-12T00:18:20.310Z,0.00
2019-03-12T00:19:20.334Z,0.00
2019-03-12T00:20:20.353Z,0.00
2019-03-12T00:21:20.374Z,0.00
2019-03-12T00:22:20.395Z,0.00
2019-03-12T00:23:20.418Z,0.00
2019-03-12T00:24:20.440Z,0.00
2019-03-12T00:25:20.460Z,0.00
2019-03-12T00:26:20.482Z,0.00
2019-03-12T00:27:20.503Z,0.00
2019-03-12T00:28:20.524Z,0.00
2019-03-12T00:29:20.543Z,0.00
2019-03-12T00:30:20.565Z,0.00
2019-03-12T00:31:20.587Z,0.00
2019-03-12T00:32:20.607Z,0.00
2019-03-12T00:33:20.631Z,0.00
2019-03-12T00:34:20.650Z,0.00
2019-03-12T00:35:20.674Z,0.00
2019-03-12T00:36:20.694Z,0.00
2019-03-12T00:37:20.715Z,0.00
2019-03-12T00:38:20.735Z,0.00
2019-03-12T00:39:20.755Z,0.00
2019-03-12T00:40:20.779Z,0.00
2019-03-12T00:41:20.799Z,0.00
2019-03-12T00:42:20.817Z,0.00
2019-03-12T00:43:20.839Z,0.00
2019-03-12T00:44:20.942Z,0.00
2019-03-12T00:45:20.883Z,0.00
2019-03-12T00:46:20.995Z,0.00
2019-03-12T00:47:20.944Z,0.00
2019-03-12T00:48:20.950Z,0.00
2019-03-12T00:49:20.970Z,0.00
2019-03-12T00:50:20.990Z,0.00
2019-03-12T00:51:21.007Z,0.00
2019-03-12T00:52:21.032Z,0.00
2019-03-12T00:53:21.055Z,0.00
2019-03-12T00:54:21.071Z,0.00
2019-03-12T00:55:21.098Z,0.00
2019-03-12T00:56:21.112Z,0.00
2019-03-12T00:57:21.138Z,0.00
2019-03-12T00:58:21.155Z,0.00
2019-03-12T00:59:21.175Z,0.00
2019-03-12T01:00:21.199Z,0.00
2019-03-12T01:01:21.218Z,0.00
2019-03-12T01:02:21.238Z,0.00
2019-03-12T01:03:21.261Z,0.00
2019-03-12T01:04:21.284Z,0.00
2019-03-12T01:05:21.303Z,0.00
2019-03-12T01:06:21.323Z,0.00
2019-03-12T01:07:21.346Z,0.00
2019-03-12T01:08:21.368Z,0.00
2019-03-12T01:09:21.390Z,0.00
2019-03-12T01:10:21.409Z,0.00
2019-03-12T01:11:21.431Z,0.00
2019-03-12T01:12:21.452Z,0.00
2019-03-12T01:13:21.473Z,0.00
2019-03-12T01:14:21.578Z,0.00
2019-03-12T01:15:21.513Z,0.00
2019-03-12T01:16:21.535Z,0.00
2019-03-12T01:17:21.557Z,0.00
2019-03-12T01:18:21.581Z,0.00
2019-03-12T01:19:21.600Z,0.00
2019-03-12T01:20:21.623Z,0.00
2019-03-12T01:21:21.646Z,0.00
2019-03-12T01:22:21.662Z,0.00
2019-03-12T01:23:21.685Z,0.00
2019-03-12T01:24:21.709Z,0.00
2019-03-12T01:25:21.728Z,0.00
2019-03-12T01:26:21.750Z,0.00
2019-03-12T01:27:21.771Z,0.00
2019-03-12T01:28:21.798Z,0.00
2019-03-12T01:29:21.815Z,0.00
2019-03-12T01:30:21.836Z,0.00
2019-03-12T01:31:21.853Z,0.00
2019-03-12T01:32:21.876Z,0.00
2019-03-12T01:33:21.909Z,0.00
2019-03-12T01:34:21.919Z,0.00
2019-03-12T01:35:21.940Z,0.00
2019-03-12T01:36:21.961Z,0.00
2019-03-12T01:37:21.984Z,0.00
2019-03-12T01:38:22.008Z,0.00
2019-03-12T01:39:22.026Z,0.00
2019-03-12T01:40:22.046Z,0.00
2019-03-12T01:41:22.071Z,0.00
2019-03-12T01:42:22.091Z,0.00
2019-03-12T01:43:22.115Z,0.00
2019-03-12T01:44:22.135Z,0.00
2019-03-12T01:45:22.155Z,0.00
2019-03-12T01:46:22.179Z,0.00
2019-03-12T01:47:22.201Z,0.00
2019-03-12T01:48:22.220Z,0.00
2019-03-12T01:49:22.245Z,0.00
2019-03-12T01:50:22.265Z,0.00
2019-03-12T01:51:22.286Z,0.00
2019-03-12T01:52:22.310Z,0.00
2019-03-12T01:53:22.330Z,0.00
2019-03-12T01:54:22.351Z,0.00
2019-03-12T01:55:22.370Z,0.00
2019-03-12T01:56:22.392Z,0.00
2019-03-12T01:57:22.416Z,0.00
2019-03-12T01:58:22.441Z,0.00
2019-03-12T01:59:22.459Z,0.00
2019-03-12T02:00:22.480Z,0.00
2019-03-12T02:01:22.502Z,0.00
2019-03-12T02:02:22.533Z,0.00
2019-03-12T02:03:22.543Z,0.00
2019-03-12T02:04:22.569Z,0.00
2019-03-12T02:05:22.590Z,0.00
2019-03-12T02:06:22.611Z,0.00
2019-03-12T02:07:22.634Z,0.00
2019-03-12T02:08:22.656Z,0.00
2019-03-12T02:09:22.680Z,0.00
2019-03-12T02:10:22.703Z,0.00
2019-03-12T02:11:22.725Z,0.00
2019-03-12T02:12:22.748Z,0.00
2019-03-12T02:13:22.770Z,0.00
2019-03-12T02:14:22.794Z,0.00
2019-03-12T02:15:22.812Z,0.00
2019-03-12T02:16:22.835Z,0.00
2019-03-12T02:17:22.857Z,0.00
2019-03-12T02:18:22.880Z,0.00
2019-03-12T02:19:22.905Z,0.00
2019-03-12T02:20:22.931Z,0.00
2019-03-12T02:21:22.948Z,0.00
2019-03-12T02:22:22.998Z,0.00
2019-03-12T02:23:22.991Z,0.00
2019-03-12T02:24:23.020Z,0.00
2019-03-12T02:25:23.038Z,0.00
2019-03-12T02:26:23.059Z,0.00
2019-03-12T02:27:23.090Z,0.00
2019-03-12T02:28:23.104Z,0.00
2019-03-12T02:29:23.127Z,0.00
2019-03-12T02:30:23.151Z,0.00
2019-03-12T02:31:23.196Z,0.00
2019-03-12T02:32:23.194Z,0.00
2019-03-12T02:33:23.254Z,0.00
2019-03-12T02:34:23.240Z,0.00
2019-03-12T02:35:23.264Z,0.00
2019-03-12T02:36:23.435Z,0.00
2019-03-12T02:37:23.332Z,0.00
2019-03-12T02:38:23.331Z,0.00
2019-03-12T02:39:23.379Z,0.00
2019-03-12T02:40:23.384Z,0.00
2019-03-12T02:41:23.401Z,0.00
2019-03-12T02:42:23.424Z,0.00
2019-03-12T02:43:23.445Z,0.00
2019-03-12T02:44:23.477Z,0.00
2019-03-12T02:45:23.499Z,0.00
2019-03-12T02:46:23.516Z,0.00
2019-03-12T02:47:23.538Z,0.00
2019-03-12T02:48:23.566Z,0.00
2019-03-12T02:49:23.590Z,0.00
2019-03-12T02:50:23.611Z,0.00
2019-03-12T02:51:23.630Z,0.00
2019-03-12T02:52:23.667Z,0.00
2019-03-12T02:53:23.684Z,0.00
2019-03-12T02:54:23.706Z,0.00
2019-03-12T02:55:23.734Z,0.00
2019-03-12T02:56:23.744Z,0.00
2019-03-12T02:57:23.766Z,0.00
2019-03-12T02:58:23.790Z,0.00
2019-03-12T02:59:23.816Z,0.00
2019-03-12T03:00:23.844Z,0.00
2019-03-12T03:01:23.857Z,0.00
2019-03-12T03:02:23.884Z,0.00
2019-03-12T03:03:23.905Z,0.00
2019-03-12T03:04:23.929Z,0.00
2019-03-12T03:05:23.950Z,0.00
2019-03-12T03:06:23.978Z,0.00
2019-03-12T03:07:24.003Z,0.00
2019-03-12T03:08:24.029Z,0.00
2019-03-12T03:09:24.041Z,0.00
2019-03-12T03:10:24.064Z,0.00
2019-03-12T03:11:24.091Z,0.00
2019-03-12T03:12:24.109Z,0.00
2019-03-12T03:13:24.131Z,0.00
2019-03-12T03:14:24.154Z,0.00
2019-03-12T03:15:24.179Z,0.00
2019-03-12T03:16:24.589Z,0.00
2019-03-12T03:17:24.222Z,0.00
2019-03-12T03:18:24.244Z,0.00
2019-03-12T03:19:24.278Z,0.00
2019-03-12T03:20:24.296Z,0.00
2019-03-12T03:21:24.314Z,0.00
2019-03-12T03:22:24.336Z,0.00
2019-03-12T03:23:24.359Z,0.00
2019-03-12T03:24:24.386Z,0.00
2019-03-12T03:25:24.407Z,0.00
2019-03-12T03:26:24.431Z,0.00
2019-03-12T03:27:24.453Z,0.00
2019-03-12T03:28:24.478Z,0.00
2019-03-12T03:29:24.498Z,0.00
2019-03-12T03:30:24.552Z,0.00
2019-03-12T03:31:24.546Z,0.00
2019-03-12T03:32:24.568Z,0.00
2019-03-12T03:33:24.589Z,0.00
2019-03-12T03:34:28.180Z,0.00
2019-03-12T03:35:24.633Z,0.00
2019-03-12T03:36:24.657Z,0.00
2019-03-12T03:37:24.688Z,0.00
2019-03-12T03:38:24.704Z,0.00
2019-03-12T03:39:24.725Z,0.00
2019-03-12T03:40:24.767Z,0.00
2019-03-12T03:41:24.803Z,0.00
2019-03-12T03:42:24.793Z,0.00
2019-03-12T03:43:24.819Z,0.00
2019-03-12T03:44:24.839Z,0.00
2019-03-12T03:45:24.863Z,0.00
2019-03-12T03:46:24.890Z,0.00
2019-03-12T03:47:24.908Z,0.00
2019-03-12T03:48:24.931Z,0.00
2019-03-12T03:49:24.960Z,0.00
2019-03-12T03:50:24.975Z,0.00
2019-03-12T03:51:25.001Z,0.00
2019-03-12T03:52:25.025Z,0.00
2019-03-12T03:53:25.045Z,0.00
2019-03-12T03:54:25.065Z,0.00
2019-03-12T03:55:25.090Z,0.00
2019-03-12T03:56:25.128Z,0.00
2019-03-12T03:57:25.138Z,0.00
2019-03-12T03:58:25.161Z,0.00
2019-03-12T03:59:25.180Z,0.00
2019-03-12T04:00:25.206Z,0.00
2019-03-12T04:01:25.230Z,0.00
2019-03-12T04:02:25.248Z,0.00
2019-03-12T04:03:25.276Z,0.00
2019-03-12T04:04:25.301Z,0.00
2019-03-12T04:05:25.323Z,0.00
2019-03-12T04:06:25.342Z,0.00
2019-03-12T04:07:25.365Z,0.00
2019-03-12T04:08:25.388Z,0.00
2019-03-12T04:09:25.412Z,0.00
2019-03-12T04:10:25.443Z,0.00
2019-03-12T04:11:25.455Z,0.00
2019-03-12T04:12:25.478Z,0.00
2019-03-12T04:13:25.500Z,0.00
2019-03-12T04:14:25.543Z,0.00
2019-03-12T04:15:25.548Z,0.00
2019-03-12T04:16:25.570Z,4.00
2019-03-12T04:17:25.607Z,4.00
2019-03-12T04:18:25.617Z,4.00
2019-03-12T04:19:25.645Z,4.00
2019-03-12T04:20:25.663Z,0.00
2019-03-12T04:21:25.700Z,0.00
2019-03-12T04:22:25.811Z,4.00
2019-03-12T04:23:25.729Z,4.00
2019-03-12T04:24:25.753Z,8.00
2019-03-12T04:25:25.775Z,4.00
2019-03-12T04:26:25.798Z,8.00
2019-03-12T04:27:25.826Z,8.00
2019-03-12T04:28:25.848Z,8.00
2019-03-12T04:29:25.876Z,8.00
2019-03-12T04:30:25.890Z,12.00
2019-03-12T04:31:25.915Z,8.00
2019-03-12T04:32:25.936Z,12.00
2019-03-12T04:33:25.960Z,12.00
2019-03-12T04:34:25.986Z,20.00
2019-03-12T04:35:26.008Z,24.00
2019-03-12T04:36:26.029Z,28.00
2019-03-12T04:37:26.052Z,32.00
2019-03-12T04:38:26.075Z,40.00
2019-03-12T04:39:26.096Z,48.00
2019-03-12T04:40:26.122Z,48.00
2019-03-12T04:41:26.144Z,56.00
2019-03-12T04:42:26.166Z,60.00
2019-03-12T04:43:26.190Z,52.00
2019-03-12T04:44:26.213Z,44.00
2019-03-12T04:45:26.239Z,36.00
2019-03-12T04:46:26.261Z,44.00
2019-03-12T04:47:26.286Z,60.00
2019-03-12T04:48:26.308Z,76.00
2019-03-12T04:49:26.329Z,84.00
2019-03-12T04:50:26.351Z,112.00
2019-03-12T04:51:26.392Z,128.00
2019-03-12T04:52:26.400Z,124.00
2019-03-12T04:53:26.421Z,132.00
2019-03-12T04:54:26.445Z,128.00
2019-03-12T04:55:26.468Z,136.00
2019-03-12T04:56:26.492Z,156.00
2019-03-12T04:57:26.517Z,172.00
2019-03-12T04:58:26.538Z,172.00
2019-03-12T04:59:26.560Z,160.00
2019-03-12T05:00:26.587Z,156.00
2019-03-12T05:01:26.608Z,160.00
2019-03-12T05:02:26.631Z,152.00
2019-03-12T05:03:26.654Z,136.00
2019-03-12T05:04:26.680Z,128.00
2019-03-12T05:05:26.702Z,132.00
2019-03-12T05:06:26.724Z,136.00
2019-03-12T05:07:26.750Z,132.00
2019-03-12T05:08:26.772Z,132.00
2019-03-12T05:09:26.794Z,160.00
2019-03-12T05:10:26.821Z,324.00
2019-03-12T05:11:26.840Z,496.00
2019-03-12T05:12:26.866Z,564.00
2019-03-12T05:13:26.889Z,600.00
2019-03-12T05:14:26.909Z,600.00
2019-03-12T05:15:26.940Z,632.00
2019-03-12T05:16:26.963Z,648.00
2019-03-12T05:17:27.066Z,660.00
2019-03-12T05:18:27.008Z,560.00
2019-03-12T05:19:27.029Z,448.00
2019-03-12T05:20:27.053Z,428.00
2019-03-12T05:21:27.076Z,428.00
2019-03-12T05:22:27.098Z,484.00
2019-03-12T05:23:27.123Z,608.00
2019-03-12T05:24:27.147Z,660.00
2019-03-12T05:25:27.172Z,708.00
2019-03-12T05:26:27.193Z,736.00
2019-03-12T05:27:27.216Z,712.00
2019-03-12T05:28:27.241Z,660.00
2019-03-12T05:29:27.267Z,632.00
2019-03-12T05:30:27.286Z,604.00
2019-03-12T05:31:27.313Z,664.00
2019-03-12T05:32:27.426Z,764.00
2019-03-12T05:33:27.358Z,904.00
2019-03-12T05:34:27.385Z,776.00
2019-03-12T05:35:27.408Z,808.00
2019-03-12T05:36:27.430Z,1076.00
2019-03-12T05:37:27.454Z,1056.00
2019-03-12T05:38:27.477Z,832.00
2019-03-12T05:39:27.501Z,748.00
2019-03-12T05:40:27.524Z,624.00
2019-03-12T05:41:27.550Z,664.00
2019-03-12T05:42:27.576Z,944.00
2019-03-12T05:43:27.595Z,1184.00
2019-03-12T05:44:27.620Z,1236.00
2019-03-12T05:45:27.644Z,1180.00
2019-03-12T05:46:27.668Z,1156.00
2019-03-12T05:47:27.691Z,1124.00
2019-03-12T05:48:27.720Z,1024.00
2019-03-12T05:49:27.739Z,1012.00
2019-03-12T05:50:27.760Z,1020.00
2019-03-12T05:51:27.786Z,1316.00
2019-03-12T05:52:27.810Z,1564.00
2019-03-12T05:53:27.837Z,1548.00
2019-03-12T05:54:27.868Z,1352.00
2019-03-12T05:55:27.881Z,1260.00
2019-03-12T05:56:27.905Z,1372.00
2019-03-12T05:57:27.935Z,1624.00
2019-03-12T05:58:27.953Z,1792.00
2019-03-12T05:59:27.978Z,1852.00
2019-03-12T06:00:28.008Z,1924.00
2019-03-12T06:01:28.028Z,1968.00
2019-03-12T06:02:28.052Z,1968.00
2019-03-12T06:03:28.075Z,1796.00
2019-03-12T06:04:28.099Z,1700.00
2019-03-12T06:05:28.124Z,1660.00
2019-03-12T06:06:28.147Z,1672.00
2019-03-12T06:07:28.170Z,1548.00
2019-03-12T06:08:28.199Z,1552.00
2019-03-12T06:09:30.468Z,1512.00
2019-03-12T06:10:28.242Z,1392.00
2019-03-12T06:11:28.266Z,1252.00
2019-03-12T06:12:28.293Z,1064.00
2019-03-12T06:13:28.318Z,940.00
2019-03-12T06:14:28.339Z,916.00
2019-03-12T06:15:28.362Z,884.00
2019-03-12T06:16:28.388Z,832.00
2019-03-12T06:17:28.414Z,808.00
2019-03-12T06:18:28.439Z,800.00
2019-03-12T06:19:28.461Z,900.00
2019-03-12T06:20:28.485Z,1116.00
2019-03-12T06:21:28.514Z,1316.00
2019-03-12T06:22:28.533Z,1568.00
2019-03-12T06:23:28.558Z,1884.00
2019-03-12T06:24:28.588Z,1832.00
2019-03-12T06:25:28.617Z,1652.00
2019-03-12T06:26:28.637Z,1672.00
2019-03-12T06:27:28.656Z,1592.00
2019-03-12T06:28:31.095Z,1396.00
2019-03-12T06:29:28.708Z,1248.00
2019-03-12T06:30:28.729Z,1048.00
2019-03-12T06:31:28.756Z,1028.00
2019-03-12T06:32:28.781Z,1392.00
2019-03-12T06:33:28.803Z,1940.00
2019-03-12T06:34:28.826Z,2052.00
2019-03-12T06:35:28.855Z,1888.00
2019-03-12T06:36:28.876Z,2108.00
2019-03-12T06:37:28.900Z,2352.00
2019-03-12T06:38:28.925Z,2468.00
2019-03-12T06:39:28.951Z,2544.00
2019-03-12T06:40:29.082Z,2668.00
2019-03-12T06:41:29.002Z,2724.00
2019-03-12T06:42:29.029Z,2952.00
2019-03-12T06:43:29.055Z,3304.00
2019-03-12T06:44:29.075Z,3512.00
2019-03-12T06:45:29.102Z,3536.00
2019-03-12T06:46:29.125Z,4064.00
2019-03-12T06:47:29.150Z,4192.00
2019-03-12T06:48:29.173Z,4036.00
2019-03-12T06:49:29.199Z,3928.00
2019-03-12T06:50:29.223Z,3532.00
2019-03-12T06:51:29.249Z,3252.00
2019-03-12T06:52:29.272Z,3264.00
2019-03-12T06:53:29.300Z,3416.00
2019-03-12T06:54:29.323Z,3604.00
2019-03-12T06:55:29.345Z,3828.00
2019-03-12T06:56:29.373Z,4352.00
2019-03-12T06:57:29.397Z,5148.00
2019-03-12T06:58:29.423Z,5348.00
2019-03-12T06:59:29.446Z,5292.00
2019-03-12T07:00:29.472Z,5528.00
2019-03-12T07:01:29.499Z,5616.00
2019-03-12T07:02:29.521Z,5100.00
2019-03-12T07:03:29.549Z,4540.00
2019-03-12T07:04:29.574Z,4324.00
2019-03-12T07:05:29.602Z,4516.00
2019-03-12T07:06:29.624Z,5060.00
2019-03-12T07:07:29.653Z,5816.00
2019-03-12T07:08:29.674Z,6444.00
2019-03-12T07:09:29.707Z,6328.00
2019-03-12T07:10:29.730Z,5556.00
2019-03-12T07:11:29.750Z,4944.00
2019-03-12T07:12:29.778Z,4488.00
2019-03-12T07:13:29.803Z,4192.00
2019-03-12T07:14:29.826Z,3780.00
2019-03-12T07:15:29.870Z,3780.00
2019-03-12T07:16:29.881Z,3712.00
2019-03-12T07:17:29.908Z,3540.00
2019-03-12T07:18:29.949Z,3852.00
2019-03-12T07:19:29.957Z,4408.00
2019-03-12T07:20:29.980Z,4896.00
2019-03-12T07:21:30.005Z,5752.00
2019-03-12T07:22:30.034Z,6292.00
2019-03-12T07:23:30.056Z,6332.00
2019-03-12T07:24:30.097Z,6276.00
2019-03-12T07:25:30.109Z,6300.00
2019-03-12T07:26:30.136Z,6160.00
2019-03-12T07:27:30.160Z,5732.00
2019-03-12T07:28:30.187Z,5864.00
2019-03-12T07:29:30.210Z,6028.00
2019-03-12T07:30:30.235Z,5932.00
2019-03-12T07:31:30.261Z,5980.00
2019-03-12T07:32:30.295Z,6480.00
2019-03-12T07:33:30.314Z,6260.00
2019-03-12T07:34:36.549Z,5664.00
2019-03-12T07:35:30.370Z,6608.00
2019-03-12T07:36:30.393Z,8420.00
2019-03-12T07:37:30.419Z,9196.00
2019-03-12T07:38:30.444Z,8992.00
2019-03-12T07:39:30.469Z,8824.00
2019-03-12T07:40:30.494Z,8856.00
2019-03-12T07:41:32.706Z,9136.00
2019-03-12T07:42:30.546Z,9708.00
2019-03-12T07:43:30.571Z,10440.00
2019-03-12T07:44:30.597Z,10564.00
2019-03-12T07:45:30.625Z,10288.00
2019-03-12T07:46:30.649Z,10116.00
2019-03-12T07:47:35.833Z,9508.00
2019-03-12T07:48:30.702Z,8864.00
2019-03-12T07:49:30.730Z,8332.00
2019-03-12T07:50:30.757Z,7568.00
2019-03-12T07:51:30.781Z,7040.00
2019-03-12T07:52:30.828Z,6816.00
2019-03-12T07:53:30.835Z,7032.00
2019-03-12T07:54:30.859Z,7136.00
2019-03-12T07:55:30.888Z,8096.00
2019-03-12T07:56:30.913Z,8936.00
2019-03-12T07:57:30.941Z,8464.00
2019-03-12T07:58:35.821Z,7436.00
2019-03-12T07:59:30.989Z,7896.00
2019-03-12T08:00:31.016Z,9396.00
2019-03-12T08:01:31.042Z,10664.00
2019-03-12T08:02:31.068Z,10508.00
2019-03-12T08:03:31.096Z,10348.00
2019-03-12T08:04:31.125Z,10324.00
2019-03-12T08:05:31.155Z,10468.00
2019-03-12T08:06:31.177Z,10936.00
2019-03-12T08:07:31.205Z,11308.00
2019-03-12T08:08:31.227Z,11896.00
2019-03-12T08:09:31.257Z,12320.00
2019-03-12T08:10:33.632Z,12616.00
2019-03-12T08:11:31.309Z,13084.00
2019-03-12T08:12:34.185Z,13208.00
2019-03-12T08:13:31.360Z,12464.00
2019-03-12T08:14:31.390Z,10880.00
2019-03-12T08:15:31.422Z,10236.00
2019-03-12T08:16:31.439Z,11340.00
2019-03-12T08:17:31.476Z,11536.00
2019-03-12T08:18:31.492Z,10756.00
2019-03-12T08:19:31.520Z,7988.00
2019-03-12T08:20:31.551Z,7908.00
2019-03-12T08:21:31.577Z,9032.00
2019-03-12T08:22:31.608Z,10328.00
2019-03-12T08:23:31.630Z,11324.00
2019-03-12T08:24:31.653Z,12032.00
2019-03-12T08:25:31.684Z,11872.00
2019-03-12T08:26:31.709Z,11348.00
2019-03-12T08:27:31.742Z,10856.00
2019-03-12T08:28:31.762Z,10968.00
2019-03-12T08:29:31.790Z,11740.00
2019-03-12T08:30:31.821Z,12656.00
2019-03-12T08:31:31.841Z,13188.00
2019-03-12T08:32:31.869Z,13424.00
2019-03-12T08:33:32.205Z,13824.00
2019-03-12T08:34:31.928Z,14468.00
2019-03-12T08:35:31.950Z,14508.00
2019-03-12T08:36:31.975Z,15112.00
2019-03-12T08:37:32.016Z,15748.00
2019-03-12T08:38:32.034Z,16328.00
2019-03-12T08:39:32.059Z,17440.00
2019-03-12T08:40:32.085Z,18656.00
2019-03-12T08:41:32.115Z,19776.00
2019-03-12T08:42:32.156Z,20864.00
2019-03-12T08:43:32.167Z,21856.00
2019-03-12T08:44:32.198Z,22688.00
2019-03-12T08:45:32.239Z,23200.00
2019-03-12T08:46:32.254Z,23488.00
2019-03-12T08:47:32.279Z,24480.00
2019-03-12T08:48:32.308Z,24064.00
2019-03-12T08:49:34.754Z,20992.00
2019-03-12T08:50:32.358Z,18624.00
2019-03-12T08:51:32.389Z,16432.00
2019-03-12T08:52:32.430Z,14560.00
2019-03-12T08:53:32.456Z,14516.00
2019-03-12T08:54:32.472Z,14976.00
2019-03-12T08:55:32.499Z,14208.00
2019-03-12T08:56:32.954Z,15956.00
2019-03-12T08:57:32.555Z,17856.00
2019-03-12T08:58:32.583Z,16416.00
2019-03-12T08:59:32.612Z,16528.00
2019-03-12T09:00:32.642Z,18720.00
2019-03-12T09:01:32.669Z,18496.00
2019-03-12T09:02:32.697Z,15688.00
2019-03-12T09:03:32.724Z,11664.00
2019-03-12T09:04:32.756Z,9068.00
2019-03-12T09:05:32.779Z,8312.00
2019-03-12T09:06:32.834Z,8152.00
2019-03-12T09:07:32.839Z,7648.00
2019-03-12T09:08:32.863Z,7152.00
2019-03-12T09:09:32.892Z,6188.00
2019-03-12T09:10:32.920Z,6136.00
2019-03-12T09:11:32.947Z,7184.00
2019-03-12T09:12:32.974Z,8920.00
2019-03-12T09:13:33.002Z,10020.00
2019-03-12T09:14:33.046Z,11796.00
2019-03-12T09:15:33.069Z,11740.00
2019-03-12T09:16:33.083Z,11520.00
2019-03-12T09:17:33.112Z,10864.00
2019-03-12T09:18:33.137Z,12612.00
2019-03-12T09:19:33.174Z,15660.00
2019-03-12T09:20:33.194Z,17376.00
2019-03-12T09:21:33.220Z,18336.00
2019-03-12T09:22:33.247Z,20000.00
2019-03-12T09:23:33.274Z,21376.00
2019-03-12T09:24:33.315Z,21440.00
2019-03-12T09:25:33.329Z,20448.00
2019-03-12T09:26:33.358Z,19712.00
2019-03-12T09:27:33.389Z,18880.00
2019-03-12T09:28:33.411Z,19168.00
2019-03-12T09:29:33.440Z,16440.00
2019-03-12T09:30:33.468Z,11104.00
2019-03-12T09:31:33.493Z,8576.00
2019-03-12T09:32:33.523Z,7708.00
2019-03-12T09:33:33.554Z,8240.00
2019-03-12T09:34:33.588Z,9312.00
2019-03-12T09:35:33.606Z,9464.00
2019-03-12T09:36:33.638Z,8452.00
2019-03-12T09:37:33.663Z,7500.00
2019-03-12T09:38:33.688Z,7104.00
2019-03-12T09:39:33.716Z,7476.00
2019-03-12T09:40:33.746Z,10316.00
2019-03-12T09:41:33.774Z,14344.00
2019-03-12T09:42:33.821Z,16768.00
2019-03-12T09:43:33.828Z,20256.00
2019-03-12T09:44:33.854Z,20256.00
2019-03-12T09:45:33.885Z,20192.00
2019-03-12T09:46:33.909Z,18752.00
2019-03-12T09:47:33.936Z,16196.00
2019-03-12T09:48:33.966Z,17312.00
2019-03-12T09:49:33.991Z,15144.00
2019-03-12T09:50:34.020Z,15612.00
2019-03-12T09:51:34.078Z,15164.00
2019-03-12T09:52:34.075Z,15400.00
2019-03-12T09:53:34.102Z,15156.00
2019-03-12T09:54:34.130Z,17472.00
2019-03-12T09:55:34.159Z,18816.00
2019-03-12T09:56:34.203Z,23264.00
2019-03-12T09:57:34.302Z,25248.00
2019-03-12T09:58:34.259Z,26464.00
2019-03-12T09:59:34.272Z,23488.00
2019-03-12T10:00:34.307Z,19648.00
2019-03-12T10:01:34.345Z,15652.00
2019-03-12T10:02:34.353Z,15132.00
2019-03-12T10:03:34.401Z,21248.00
2019-03-12T10:04:34.415Z,23040.00
2019-03-12T10:05:34.442Z,20384.00
2019-03-12T10:06:34.466Z,18464.00
2019-03-12T10:07:34.495Z,16304.00
2019-03-12T10:08:34.541Z,16480.00
2019-03-12T10:09:34.554Z,17472.00
2019-03-12T10:10:34.580Z,16228.00
2019-03-12T10:11:34.611Z,16016.00
2019-03-12T10:12:34.637Z,16636.00
2019-03-12T10:13:34.669Z,19136.00
2019-03-12T10:14:34.696Z,16416.00
2019-03-12T10:15:34.724Z,13600.00
2019-03-12T10:16:34.750Z,12120.00
2019-03-12T10:17:34.783Z,13908.00
2019-03-12T10:18:34.807Z,20768.00
2019-03-12T10:19:34.834Z,23360.00
2019-03-12T10:20:34.865Z,22784.00
2019-03-12T10:21:34.894Z,23776.00
2019-03-12T10:22:34.919Z,25280.00
2019-03-12T10:23:34.948Z,27552.00
2019-03-12T10:24:34.975Z,29696.00
2019-03-12T10:25:35.004Z,33216.00
2019-03-12T10:26:35.031Z,33184.00
2019-03-12T10:27:35.061Z,26624.00
2019-03-12T10:28:35.102Z,23584.00
2019-03-12T10:29:35.118Z,20704.00
2019-03-12T10:30:37.381Z,16524.00
2019-03-12T10:31:35.184Z,13960.00
2019-03-12T10:32:35.207Z,13884.00
2019-03-12T10:33:35.233Z,12824.00
2019-03-12T10:34:35.262Z,11472.00
2019-03-12T10:35:35.294Z,10796.00
2019-03-12T10:36:35.320Z,9976.00
2019-03-12T10:37:35.350Z,9732.00
2019-03-12T10:38:35.375Z,9704.00
2019-03-12T10:39:35.405Z,9376.00
2019-03-12T10:40:35.434Z,8652.00
2019-03-12T10:41:35.461Z,8132.00
2019-03-12T10:42:35.488Z,7848.00
2019-03-12T10:43:35.519Z,8968.00
2019-03-12T10:44:35.545Z,11252.00
2019-03-12T10:45:35.575Z,14580.00
2019-03-12T10:46:35.609Z,18592.00
2019-03-12T10:47:35.637Z,20224.00
2019-03-12T10:48:35.660Z,22144.00
2019-03-12T10:49:37.610Z,29312.00
2019-03-12T10:50:35.714Z,27520.00
2019-03-12T10:51:35.773Z,27488.00
2019-03-12T10:52:35.778Z,20192.00
2019-03-12T10:53:35.819Z,15004.00
2019-03-12T10:54:35.828Z,17888.00
2019-03-12T10:55:35.886Z,23808.00
2019-03-12T10:56:35.890Z,27872.00
2019-03-12T10:57:35.931Z,25408.00
2019-03-12T10:58:35.953Z,22112.00
2019-03-12T10:59:35.987Z,20416.00
2019-03-12T11:00:36.028Z,18080.00
2019-03-12T11:01:36.031Z,12528.00
2019-03-12T11:02:36.072Z,12808.00
2019-03-12T11:03:36.115Z,13080.00
2019-03-12T11:04:36.137Z,13632.00
2019-03-12T11:05:45.816Z,14688.00
2019-03-12T11:06:36.187Z,15784.00
2019-03-12T11:07:36.226Z,16140.00
2019-03-12T11:08:36.252Z,16180.00
2019-03-12T11:09:36.271Z,14344.00
2019-03-12T11:10:36.313Z,12812.00
2019-03-12T11:11:36.390Z,11492.00
2019-03-12T11:12:36.418Z,9952.00
2019-03-12T11:13:36.380Z,8900.00
2019-03-12T11:14:36.416Z,8576.00
2019-03-12T11:15:36.448Z,9548.00
2019-03-12T11:16:36.472Z,12620.00
2019-03-12T11:17:48.836Z,15712.00
2019-03-12T11:18:36.518Z,16940.00
2019-03-12T11:19:36.533Z,15360.00
2019-03-12T11:20:36.561Z,13856.00
2019-03-12T11:21:36.589Z,15896.00
2019-03-12T11:22:36.621Z,17472.00
2019-03-12T11:23:36.653Z,15304.00
2019-03-12T11:24:36.673Z,12156.00
2019-03-12T11:25:36.703Z,11220.00
2019-03-12T11:26:36.727Z,12848.00
2019-03-12T11:27:36.757Z,16140.00
2019-03-12T11:28:36.785Z,19168.00
2019-03-12T11:29:36.815Z,18336.00
2019-03-12T11:30:36.843Z,21536.00
2019-03-12T11:31:36.867Z,25088.00
2019-03-12T11:32:36.901Z,28928.00
2019-03-12T11:33:36.923Z,30304.00
2019-03-12T11:34:38.544Z,28896.00
2019-03-12T11:35:39.552Z,30816.00
2019-03-12T11:36:37.017Z,38592.00
2019-03-12T11:37:37.037Z,43968.00
2019-03-12T11:38:37.076Z,30816.00
2019-03-12T11:39:37.097Z,27680.00
2019-03-12T11:40:37.136Z,24672.00
2019-03-12T11:41:37.235Z,24832.00
2019-03-12T11:42:37.218Z,23200.00
2019-03-12T11:43:37.214Z,19232.00
2019-03-12T11:44:37.249Z,15624.00
2019-03-12T11:45:38.266Z,13900.00
2019-03-12T11:46:44.021Z,12008.00
2019-03-12T11:47:37.337Z,10128.00
2019-03-12T11:48:37.366Z,9952.00
2019-03-12T11:49:37.420Z,10644.00
2019-03-12T11:50:37.463Z,13288.00
2019-03-12T11:51:37.455Z,14528.00
2019-03-12T11:52:37.509Z,15764.00
2019-03-12T11:53:37.524Z,17204.00
2019-03-12T11:54:37.557Z,22080.00
2019-03-12T11:55:37.655Z,22848.00
2019-03-12T11:56:37.613Z,27200.00
2019-03-12T11:57:37.631Z,14876.00
2019-03-12T11:58:37.662Z,14532.00
2019-03-12T11:59:37.706Z,20256.00
2019-03-12T12:00:37.762Z,18080.00
2019-03-12T12:01:37.748Z,18656.00
2019-03-12T12:02:37.776Z,20064.00
2019-03-12T12:03:37.810Z,28256.00
2019-03-12T12:04:37.836Z,27040.00
2019-03-12T12:05:37.870Z,23488.00
2019-03-12T12:06:42.456Z,23808.00
2019-03-12T12:07:38.212Z,23904.00
2019-03-12T12:08:37.956Z,19744.00
2019-03-12T12:09:38.067Z,19712.00
2019-03-12T12:10:38.019Z,18848.00
2019-03-12T12:11:38.054Z,19200.00
2019-03-12T12:12:40.096Z,19264.00
2019-03-12T12:13:38.141Z,18208.00
2019-03-12T12:14:38.134Z,19040.00
2019-03-12T12:15:38.167Z,21440.00
2019-03-12T12:16:38.191Z,21888.00
2019-03-12T12:17:38.221Z,20672.00
2019-03-12T12:18:38.250Z,20672.00
2019-03-12T12:19:38.281Z,20608.00
2019-03-12T12:20:38.309Z,20384.00
2019-03-12T12:21:38.340Z,20320.00
2019-03-12T12:22:38.368Z,20640.00
2019-03-12T12:23:38.398Z,22112.00
2019-03-12T12:24:38.431Z,22208.00
2019-03-12T12:25:38.463Z,21952.00
2019-03-12T12:26:38.486Z,21824.00